sensor_id;sensor_type;location;lat;lon;timestamp;pressure;altitude;pressure_sealevel;temperature;humidity
70728;BME280;58314;47.722;17.652;2022-07-29T00:01:45;100337.84;;;19.77;88.71
70728;BME280;58314;47.722;17.652;2022-07-29T00:04:46;100330.97;;;19.84;88.29
70728;BME280;58314;47.722;17.652;2022-07-29T00:07:46;100327.38;;;19.74;88.41
70728;BME280;58314;47.722;17.652;2022-07-29T00:10:47;100336.38;;;19.73;87.89
70728;BME280;58314;47.722;17.652;2022-07-29T00:13:48;100328.56;;;19.70;88.14
70728;BME280;58314;47.722;17.652;2022-07-29T00:16:48;100327.19;;;19.54;89.64
70728;BME280;58314;47.722;17.652;2022-07-29T00:19:52;100329.38;;;19.40;89.79
70728;BME280;58314;47.722;17.652;2022-07-29T00:22:53;100328.06;;;19.34;90.85
70728;BME280;58314;47.722;17.652;2022-07-29T00:25:54;100336.38;;;19.31;91.20
70728;BME280;58314;47.722;17.652;2022-07-29T00:28:56;100328.56;;;19.49;91.16
70728;BME280;58314;47.722;17.652;2022-07-29T00:31:57;100331.81;;;19.64;89.27
70728;BME280;58314;47.722;17.652;2022-07-29T00:35:01;100325.19;;;19.68;88.30
70728;BME280;58314;47.722;17.652;2022-07-29T00:38:20;100318.84;;;19.69;88.88
70728;BME280;58314;47.722;17.652;2022-07-29T00:41:21;100325.41;;;19.76;88.60
70728;BME280;58314;47.722;17.652;2022-07-29T00:44:21;100323.47;;;19.67;88.93
70728;BME280;58314;47.722;17.652;2022-07-29T00:47:22;100331.00;;;19.31;92.81
70728;BME280;58314;47.722;17.652;2022-07-29T00:50:23;100329.81;;;19.24;94.22
70728;BME280;58314;47.722;17.652;2022-07-29T00:53:25;100329.53;;;19.27;92.74
70728;BME280;58314;47.722;17.652;2022-07-29T00:56:26;100327.16;;;19.45;91.64
70728;BME280;58314;47.722;17.652;2022-07-29T00:59:27;100320.31;;;19.41;90.53
70728;BME280;58314;47.722;17.652;2022-07-29T01:02:27;100312.69;;;19.36;90.46
70728;BME280;58314;47.722;17.652;2022-07-29T01:05:28;100324.38;;;19.35;91.11
70728;BME280;58314;47.722;17.652;2022-07-29T01:08:31;100318.56;;;19.30;91.28
70728;BME280;58314;47.722;17.652;2022-07-29T01:11:33;100318.50;;;19.20;92.18
70728;BME280;58314;47.722;17.652;2022-07-29T01:14:34;100323.00;;;19.19;92.10
70728;BME280;58314;47.722;17.652;2022-07-29T01:24:34;100315.25;;;19.05;93.48
70728;BME280;58314;47.722;17.652;2022-07-29T01:27:47;100320.88;;;19.02;93.16
70728;BME280;58314;47.722;17.652;2022-07-29T01:30:54;100313.81;;;19.01;93.20
70728;BME280;58314;47.722;17.652;2022-07-29T01:33:58;100309.31;;;18.90;93.36
70728;BME280;58314;47.722;17.652;2022-07-29T01:37:12;100323.97;;;18.86;94.59
70728;BME280;58314;47.722;17.652;2022-07-29T01:40:24;100318.72;;;18.85;95.35
70728;BME280;58314;47.722;17.652;2022-07-29T01:43:32;100319.56;;;18.85;95.31
70728;BME280;58314;47.722;17.652;2022-07-29T01:46:38;100316.16;;;18.83;94.42
70728;BME280;58314;47.722;17.652;2022-07-29T01:49:46;100322.13;;;18.87;94.26
70728;BME280;58314;47.722;17.652;2022-07-29T01:52:56;100313.97;;;18.77;94.67
70728;BME280;58314;47.722;17.652;2022-07-29T01:56:00;100314.22;;;18.74;95.14
70728;BME280;58314;47.722;17.652;2022-07-29T01:59:04;100315.31;;;18.71;95.92
70728;BME280;58314;47.722;17.652;2022-07-29T02:02:08;100315.47;;;18.70;95.11
70728;BME280;58314;47.722;17.652;2022-07-29T02:05:12;100304.75;;;18.70;94.34
70728;BME280;58314;47.722;17.652;2022-07-29T02:08:15;100308.28;;;18.59;96.21
70728;BME280;58314;47.722;17.652;2022-07-29T02:11:17;100314.84;;;18.66;97.00
70728;BME280;58314;47.722;17.652;2022-07-29T02:14:19;100310.94;;;18.70;96.01
70728;BME280;58314;47.722;17.652;2022-07-29T02:17:26;100302.66;;;18.62;96.95
70728;BME280;58314;47.722;17.652;2022-07-29T02:20:29;100307.53;;;18.68;96.83
70728;BME280;58314;47.722;17.652;2022-07-29T02:23:32;100305.47;;;18.72;96.69
70728;BME280;58314;47.722;17.652;2022-07-29T02:26:35;100302.06;;;18.70;96.43
70728;BME280;58314;47.722;17.652;2022-07-29T02:29:36;100302.31;;;18.67;97.45
70728;BME280;58314;47.722;17.652;2022-07-29T02:32:39;100301.22;;;18.58;98.17
70728;BME280;58314;47.722;17.652;2022-07-29T02:35:43;100299.91;;;18.41;99.24
70728;BME280;58314;47.722;17.652;2022-07-29T02:38:45;100311.00;;;18.36;99.63
70728;BME280;58314;47.722;17.652;2022-07-29T02:41:55;100320.50;;;18.40;100.00
70728;BME280;58314;47.722;17.652;2022-07-29T02:44:57;100307.72;;;18.44;99.65
70728;BME280;58314;47.722;17.652;2022-07-29T02:48:10;100313.44;;;18.51;99.13
70728;BME280;58314;47.722;17.652;2022-07-29T02:51:18;100309.06;;;18.38;99.13
70728;BME280;58314;47.722;17.652;2022-07-29T02:54:25;100308.91;;;18.40;99.75
70728;BME280;58314;47.722;17.652;2022-07-29T02:57:55;100315.16;;;18.18;100.00
70728;BME280;58314;47.722;17.652;2022-07-29T03:01:03;100306.75;;;18.34;99.59
70728;BME280;58314;47.722;17.652;2022-07-29T03:04:04;100314.66;;;18.35;99.35
70728;BME280;58314;47.722;17.652;2022-07-29T03:07:06;100308.22;;;18.27;100.00
70728;BME280;58314;47.722;17.652;2022-07-29T03:10:07;100304.94;;;18.23;100.00
70728;BME280;58314;47.722;17.652;2022-07-29T03:13:10;100307.34;;;18.26;99.73
70728;BME280;58314;47.722;17.652;2022-07-29T03:16:12;100304.94;;;18.23;99.21
70728;BME280;58314;47.722;17.652;2022-07-29T03:19:14;100311.84;;;18.25;97.93
70728;BME280;58314;47.722;17.652;2022-07-29T03:22:14;100303.69;;;18.27;98.90
70728;BME280;58314;47.722;17.652;2022-07-29T03:25:18;100316.00;;;18.18;99.66
70728;BME280;58314;47.722;17.652;2022-07-29T03:28:19;100304.94;;;18.23;100.00
70728;BME280;58314;47.722;17.652;2022-07-29T03:31:20;100315.03;;;18.08;100.00
70728;BME280;58314;47.722;17.652;2022-07-29T03:34:23;100313.81;;;18.01;100.00
70728;BME280;58314;47.722;17.652;2022-07-29T03:37:24;100315.16;;;17.95;100.00
70728;BME280;58314;47.722;17.652;2022-07-29T03:40:28;100320.38;;;18.08;100.00
70728;BME280;58314;47.722;17.652;2022-07-29T03:43:34;100321.50;;;18.05;100.00
70728;BME280;58314;47.722;17.652;2022-07-29T03:46:39;100323.19;;;18.06;99.93
70728;BME280;58314;47.722;17.652;2022-07-29T03:49:44;100320.38;;;18.08;100.00
70728;BME280;58314;47.722;17.652;2022-07-29T03:52:47;100326.09;;;18.03;100.00
70728;BME280;58314;47.722;17.652;2022-07-29T03:55:54;100332.44;;;18.02;100.00
70728;BME280;58314;47.722;17.652;2022-07-29T03:58:57;100328.56;;;18.18;100.00
70728;BME280;58314;47.722;17.652;2022-07-29T04:01:59;100333.16;;;18.27;99.75
70728;BME280;58314;47.722;17.652;2022-07-29T04:05:01;100330.34;;;18.40;98.90
70728;BME280;58314;47.722;17.652;2022-07-29T04:08:05;100336.94;;;18.47;97.73
70728;BME280;58314;47.722;17.652;2022-07-29T04:11:06;100330.94;;;18.43;98.29
70728;BME280;58314;47.722;17.652;2022-07-29T04:14:07;100340.94;;;18.53;98.33
70728;BME280;58314;47.722;17.652;2022-07-29T04:17:08;100343.22;;;18.57;98.76
70728;BME280;58314;47.722;17.652;2022-07-29T04:20:10;100346.06;;;18.56;97.33
70728;BME280;58314;47.722;17.652;2022-07-29T04:23:16;100344.81;;;18.60;97.17
70728;BME280;58314;47.722;17.652;2022-07-29T04:26:18;100344.38;;;18.32;99.06
70728;BME280;58314;47.722;17.652;2022-07-29T04:29:19;100342.16;;;18.37;99.17
70728;BME280;58314;47.722;17.652;2022-07-29T04:32:20;100340.69;;;18.44;98.49
70728;BME280;58314;47.722;17.652;2022-07-29T04:35:21;100342.78;;;18.52;97.15
70728;BME280;58314;47.722;17.652;2022-07-29T04:38:21;100343.59;;;18.64;97.06
70728;BME280;58314;47.722;17.652;2022-07-29T04:41:22;100345.78;;;18.70;95.53
70728;BME280;58314;47.722;17.652;2022-07-29T04:44:23;100347.72;;;18.91;92.01
70728;BME280;58314;47.722;17.652;2022-07-29T04:47:24;100351.81;;;19.06;88.88
70728;BME280;58314;47.722;17.652;2022-07-29T04:50:24;100353.63;;;19.17;87.84
70728;BME280;58314;47.722;17.652;2022-07-29T04:53:25;100352.00;;;19.26;86.78
70728;BME280;58314;47.722;17.652;2022-07-29T04:56:26;100351.69;;;19.40;85.24
70728;BME280;58314;47.722;17.652;2022-07-29T04:59:27;100356.25;;;19.49;85.45
70728;BME280;58314;47.722;17.652;2022-07-29T05:02:28;100357.59;;;19.55;84.87
70728;BME280;58314;47.722;17.652;2022-07-29T05:05:28;100353.53;;;19.61;82.79
70728;BME280;58314;47.722;17.652;2022-07-29T05:08:29;100356.28;;;19.70;83.46
70728;BME280;58314;47.722;17.652;2022-07-29T05:11:29;100353.09;;;19.77;82.18
70728;BME280;58314;47.722;17.652;2022-07-29T05:14:32;100352.28;;;19.86;83.85
70728;BME280;58314;47.722;17.652;2022-07-29T05:17:36;100360.75;;;20.02;83.43
70728;BME280;58314;47.722;17.652;2022-07-29T05:20:40;100352.56;;;20.04;83.09
70728;BME280;58314;47.722;17.652;2022-07-29T05:23:44;100361.72;;;20.01;82.75
70728;BME280;58314;47.722;17.652;2022-07-29T05:26:45;100366.19;;;20.12;81.51
70728;BME280;58314;47.722;17.652;2022-07-29T05:29:48;100360.69;;;20.23;81.21
70728;BME280;58314;47.722;17.652;2022-07-29T05:32:49;100367.22;;;20.30;81.64
70728;BME280;58314;47.722;17.652;2022-07-29T05:35:52;100376.19;;;20.41;82.12
70728;BME280;58314;47.722;17.652;2022-07-29T05:38:53;100363.78;;;20.49;81.39
70728;BME280;58314;47.722;17.652;2022-07-29T05:41:53;100367.63;;;20.57;80.96
70728;BME280;58314;47.722;17.652;2022-07-29T05:44:57;100367.22;;;20.61;81.94
70728;BME280;58314;47.722;17.652;2022-07-29T05:47:57;100369.53;;;20.76;79.07
70728;BME280;58314;47.722;17.652;2022-07-29T05:50:58;100370.84;;;20.91;77.79
70728;BME280;58314;47.722;17.652;2022-07-29T05:54:00;100377.97;;;21.12;74.97
70728;BME280;58314;47.722;17.652;2022-07-29T05:57:01;100373.72;;;21.19;75.86
70728;BME280;58314;47.722;17.652;2022-07-29T06:00:06;100374.59;;;21.29;75.17
70728;BME280;58314;47.722;17.652;2022-07-29T06:03:07;100367.69;;;21.46;74.65
70728;BME280;58314;47.722;17.652;2022-07-29T06:06:08;100372.75;;;21.59;70.98
70728;BME280;58314;47.722;17.652;2022-07-29T06:09:09;100373.47;;;21.71;70.99
70728;BME280;58314;47.722;17.652;2022-07-29T06:12:09;100370.91;;;21.79;71.12
70728;BME280;58314;47.722;17.652;2022-07-29T06:15:10;100366.34;;;21.89;70.55
70728;BME280;58314;47.722;17.652;2022-07-29T06:18:12;100375.69;;;21.95;70.74
70728;BME280;58314;47.722;17.652;2022-07-29T06:21:13;100370.44;;;22.03;71.31
70728;BME280;58314;47.722;17.652;2022-07-29T06:24:15;100369.97;;;22.27;68.79
70728;BME280;58314;47.722;17.652;2022-07-29T06:27:15;100369.91;;;22.37;69.36
70728;BME280;58314;47.722;17.652;2022-07-29T06:30:16;100371.56;;;22.48;69.10
70728;BME280;58314;47.722;17.652;2022-07-29T06:33:22;100370.47;;;22.68;69.63
70728;BME280;58314;47.722;17.652;2022-07-29T06:36:23;100360.47;;;22.97;67.27
70728;BME280;58314;47.722;17.652;2022-07-29T06:39:23;100364.38;;;23.12;65.55
70728;BME280;58314;47.722;17.652;2022-07-29T06:42:26;100356.53;;;23.37;62.78
70728;BME280;58314;47.722;17.652;2022-07-29T06:45:27;100358.91;;;23.40;62.83
70728;BME280;58314;47.722;17.652;2022-07-29T06:48:28;100364.19;;;23.67;61.43
70728;BME280;58314;47.722;17.652;2022-07-29T06:51:29;100349.84;;;23.85;60.82
70728;BME280;58314;47.722;17.652;2022-07-29T06:54:30;100356.66;;;23.97;59.66
70728;BME280;58314;47.722;17.652;2022-07-29T06:57:31;100359.81;;;24.11;60.48
70728;BME280;58314;47.722;17.652;2022-07-29T07:00:31;100362.03;;;24.15;59.42
70728;BME280;58314;47.722;17.652;2022-07-29T07:03:33;100353.41;;;24.20;60.44
70728;BME280;58314;47.722;17.652;2022-07-29T07:06:34;100361.91;;;24.25;60.27
70728;BME280;58314;47.722;17.652;2022-07-29T07:09:35;100353.84;;;24.33;60.01
70728;BME280;58314;47.722;17.652;2022-07-29T07:12:39;100354.56;;;24.43;59.46
70728;BME280;58314;47.722;17.652;2022-07-29T07:15:40;100355.34;;;24.70;60.04
70728;BME280;58314;47.722;17.652;2022-07-29T07:18:41;100355.94;;;24.90;58.88
70728;BME280;58314;47.722;17.652;2022-07-29T07:21:41;100351.88;;;24.94;58.44
70728;BME280;58314;47.722;17.652;2022-07-29T07:24:42;100352.06;;;25.01;58.68
70728;BME280;58314;47.722;17.652;2022-07-29T07:27:44;100348.53;;;25.09;58.71
70728;BME280;58314;47.722;17.652;2022-07-29T07:30:44;100355.63;;;25.02;57.93
70728;BME280;58314;47.722;17.652;2022-07-29T07:33:45;100350.38;;;25.00;59.63
70728;BME280;58314;47.722;17.652;2022-07-29T07:36:49;100352.06;;;25.01;58.25
70728;BME280;58314;47.722;17.652;2022-07-29T07:39:50;100357.00;;;25.14;58.21
70728;BME280;58314;47.722;17.652;2022-07-29T07:42:51;100353.50;;;25.54;57.54
70728;BME280;58314;47.722;17.652;2022-07-29T07:45:57;100347.22;;;25.87;57.39
70728;BME280;58314;47.722;17.652;2022-07-29T07:49:00;100351.09;;;25.92;56.08
70728;BME280;58314;47.722;17.652;2022-07-29T07:52:00;100342.41;;;26.22;54.63
70728;BME280;58314;47.722;17.652;2022-07-29T07:55:01;100345.66;;;26.65;54.64
70728;BME280;58314;47.722;17.652;2022-07-29T07:58:02;100345.38;;;26.83;53.80
70728;BME280;58314;47.722;17.652;2022-07-29T08:01:02;100345.53;;;27.13;53.85
70728;BME280;58314;47.722;17.652;2022-07-29T08:04:03;100349.19;;;27.20;52.36
70728;BME280;58314;47.722;17.652;2022-07-29T08:07:04;100346.72;;;27.56;51.89
70728;BME280;58314;47.722;17.652;2022-07-29T08:10:25;100342.81;;;27.59;50.79
70728;BME280;58314;47.722;17.652;2022-07-29T08:13:45;100345.59;;;27.89;50.33
70728;BME280;58314;47.722;17.652;2022-07-29T08:16:50;100346.28;;;28.35;50.18
70728;BME280;58314;47.722;17.652;2022-07-29T08:19:52;100341.19;;;28.77;50.83
70728;BME280;58314;47.722;17.652;2022-07-29T08:22:58;100339.38;;;29.06;50.62
70728;BME280;58314;47.722;17.652;2022-07-29T08:25:59;100345.06;;;29.04;47.95
70728;BME280;58314;47.722;17.652;2022-07-29T08:29:06;100337.78;;;29.11;46.73
70728;BME280;58314;47.722;17.652;2022-07-29T08:32:07;100341.38;;;28.97;46.64
70728;BME280;58314;47.722;17.652;2022-07-29T08:35:10;100343.06;;;29.35;49.32
70728;BME280;58314;47.722;17.652;2022-07-29T08:38:11;100350.75;;;29.53;48.42
70728;BME280;58314;47.722;17.652;2022-07-29T08:41:14;100338.28;;;29.65;44.55
70728;BME280;58314;47.722;17.652;2022-07-29T08:44:16;100335.69;;;29.78;44.18
70728;BME280;58314;47.722;17.652;2022-07-29T08:47:29;100335.25;;;30.10;45.45
70728;BME280;58314;47.722;17.652;2022-07-29T08:50:48;100346.06;;;29.90;44.07
70728;BME280;58314;47.722;17.652;2022-07-29T08:54:43;100337.69;;;29.91;43.75
70728;BME280;58314;47.722;17.652;2022-07-29T08:57:55;100345.56;;;29.79;46.06
70728;BME280;58314;47.722;17.652;2022-07-29T09:00:57;100350.66;;;29.39;45.72
70728;BME280;58314;47.722;17.652;2022-07-29T09:04:08;100343.41;;;29.75;44.94
70728;BME280;58314;47.722;17.652;2022-07-29T09:07:19;100342.66;;;29.88;44.81
70728;BME280;58314;47.722;17.652;2022-07-29T09:10:26;100343.53;;;29.66;44.27
70728;BME280;58314;47.722;17.652;2022-07-29T09:13:51;100342.91;;;29.64;47.34
70728;BME280;58314;47.722;17.652;2022-07-29T09:16:55;100339.97;;;29.66;45.40
70728;BME280;58314;47.722;17.652;2022-07-29T09:20:08;100338.22;;;29.80;43.67
70728;BME280;58314;47.722;17.652;2022-07-29T09:23:10;100333.16;;;30.12;43.82
70728;BME280;58314;47.722;17.652;2022-07-29T09:26:14;100333.66;;;30.22;41.75
70728;BME280;58314;47.722;17.652;2022-07-29T09:29:17;100329.44;;;30.19;42.23
70728;BME280;58314;47.722;17.652;2022-07-29T09:32:19;100331.41;;;29.97;42.67
70728;BME280;58314;47.722;17.652;2022-07-29T09:35:21;100324.59;;;30.15;41.38
70728;BME280;58314;47.722;17.652;2022-07-29T09:38:23;100322.09;;;29.85;42.62
70728;BME280;58314;47.722;17.652;2022-07-29T09:41:23;100315.13;;;29.54;41.97
70728;BME280;58314;47.722;17.652;2022-07-29T09:44:25;100324.78;;;30.13;43.11
70728;BME280;58314;47.722;17.652;2022-07-29T09:50:46;100305.75;;;30.68;38.50
70728;BME280;58314;47.722;17.652;2022-07-29T09:53:48;100308.81;;;31.07;38.86
70728;BME280;58314;47.722;17.652;2022-07-29T09:56:51;100297.69;;;31.22;37.07
70728;BME280;58314;47.722;17.652;2022-07-29T10:00:00;100291.78;;;31.25;34.87
70728;BME280;58314;47.722;17.652;2022-07-29T10:03:01;100291.56;;;31.66;35.97
70728;BME280;58314;47.722;17.652;2022-07-29T10:06:09;100285.69;;;31.69;35.24
70728;BME280;58314;47.722;17.652;2022-07-29T10:09:11;100283.56;;;32.05;35.77
70728;BME280;58314;47.722;17.652;2022-07-29T10:12:12;100280.47;;;32.40;36.13
70728;BME280;58314;47.722;17.652;2022-07-29T10:15:16;100283.28;;;32.72;34.05
70728;BME280;58314;47.722;17.652;2022-07-29T10:18:17;100281.84;;;32.62;35.64
70728;BME280;58314;47.722;17.652;2022-07-29T10:21:20;100270.53;;;32.84;33.96
70728;BME280;58314;47.722;17.652;2022-07-29T10:24:21;100267.03;;;33.34;33.19
70728;BME280;58314;47.722;17.652;2022-07-29T10:27:22;100262.75;;;33.63;29.92
70728;BME280;58314;47.722;17.652;2022-07-29T10:30:25;100266.19;;;34.21;29.27
70728;BME280;58314;47.722;17.652;2022-07-29T10:33:45;100261.13;;;33.81;29.11
70728;BME280;58314;47.722;17.652;2022-07-29T10:41:02;100259.97;;;32.49;33.71
70728;BME280;58314;47.722;17.652;2022-07-29T10:43:46;100252.88;;;33.05;32.87
70728;BME280;58314;47.722;17.652;2022-07-29T10:46:49;100238.19;;;34.42;32.82
70728;BME280;58314;47.722;17.652;2022-07-29T10:50:02;100247.00;;;33.01;33.49
70728;BME280;58314;47.722;17.652;2022-07-29T10:53:03;100240.72;;;32.24;33.31
70728;BME280;58314;47.722;17.652;2022-07-29T10:56:04;100239.53;;;32.00;33.78
70728;BME280;58314;47.722;17.652;2022-07-29T11:05:53;100238.09;;;31.84;32.56
70728;BME280;58314;47.722;17.652;2022-07-29T11:09:16;100240.19;;;31.88;31.98
70728;BME280;58314;47.722;17.652;2022-07-29T11:15:55;100239.66;;;32.25;36.64
70728;BME280;58314;47.722;17.652;2022-07-29T11:22:31;100226.72;;;34.15;31.25
70728;BME280;58314;47.722;17.652;2022-07-29T11:25:33;100222.34;;;38.20;25.99
70728;BME280;58314;47.722;17.652;2022-07-29T11:28:34;100211.97;;;39.62;24.35
70728;BME280;58314;47.722;17.652;2022-07-29T11:31:39;100207.81;;;36.79;27.32
70728;BME280;58314;47.722;17.652;2022-07-29T11:34:42;100208.78;;;34.31;30.71
70728;BME280;58314;47.722;17.652;2022-07-29T11:37:43;100207.84;;;33.70;30.98
70728;BME280;58314;47.722;17.652;2022-07-29T11:44:16;100199.06;;;39.03;25.32
70728;BME280;58314;47.722;17.652;2022-07-29T11:47:20;100205.13;;;37.52;26.66
70728;BME280;58314;47.722;17.652;2022-07-29T11:50:29;100189.78;;;35.61;28.65
70728;BME280;58314;47.722;17.652;2022-07-29T11:53:30;100194.75;;;36.57;27.42
70728;BME280;58314;47.722;17.652;2022-07-29T11:56:32;100189.78;;;35.25;30.69
70728;BME280;58314;47.722;17.652;2022-07-29T11:59:39;100191.06;;;36.23;29.32
70728;BME280;58314;47.722;17.652;2022-07-29T12:02:43;100187.25;;;38.20;25.27
70728;BME280;58314;47.722;17.652;2022-07-29T12:05:44;100180.28;;;39.47;22.00
70728;BME280;58314;47.722;17.652;2022-07-29T12:08:45;100176.59;;;39.84;23.24
70728;BME280;58314;47.722;17.652;2022-07-29T12:11:46;100180.56;;;38.71;23.26
70728;BME280;58314;47.722;17.652;2022-07-29T12:14:48;100179.88;;;41.16;21.95
70728;BME280;58314;47.722;17.652;2022-07-29T12:17:49;100174.91;;;40.98;19.76
70728;BME280;58314;47.722;17.652;2022-07-29T12:20:57;100174.88;;;41.39;19.28
70728;BME280;58314;47.722;17.652;2022-07-29T12:23:58;100167.25;;;42.25;19.17
70728;BME280;58314;47.722;17.652;2022-07-29T12:26:59;100158.72;;;41.51;18.86
70728;BME280;58314;47.722;17.652;2022-07-29T12:30:03;100167.69;;;41.07;20.17
70728;BME280;58314;47.722;17.652;2022-07-29T12:36:13;100153.84;;;39.67;20.12
70728;BME280;58314;47.722;17.652;2022-07-29T12:39:15;100149.41;;;40.96;19.08
70728;BME280;58314;47.722;17.652;2022-07-29T12:42:17;100142.13;;;41.20;19.95
70728;BME280;58314;47.722;17.652;2022-07-29T12:45:28;100139.94;;;40.40;19.81
70728;BME280;58314;47.722;17.652;2022-07-29T12:48:36;100125.34;;;39.19;20.97
70728;BME280;58314;47.722;17.652;2022-07-29T12:51:39;100130.25;;;38.41;23.17
70728;BME280;58314;47.722;17.652;2022-07-29T12:54:47;100126.84;;;38.07;23.66
70728;BME280;58314;47.722;17.652;2022-07-29T12:57:50;100125.91;;;38.18;23.39
70728;BME280;58314;47.722;17.652;2022-07-29T13:04:01;100130.66;;;35.52;25.80
70728;BME280;58314;47.722;17.652;2022-07-29T13:07:04;100123.97;;;35.71;25.37
70728;BME280;58314;47.722;17.652;2022-07-29T13:13:12;100126.72;;;35.59;25.96
70728;BME280;58314;47.722;17.652;2022-07-29T13:16:13;100113.41;;;35.68;27.35
70728;BME280;58314;47.722;17.652;2022-07-29T13:19:14;100099.84;;;35.14;25.56
70728;BME280;58314;47.722;17.652;2022-07-29T13:22:23;100102.78;;;35.72;26.16
70728;BME280;58314;47.722;17.652;2022-07-29T13:25:26;100098.53;;;36.10;26.62
70728;BME280;58314;47.722;17.652;2022-07-29T13:28:27;100091.84;;;36.34;23.97
70728;BME280;58314;47.722;17.652;2022-07-29T13:31:28;100086.44;;;39.46;21.06
70728;BME280;58314;47.722;17.652;2022-07-29T13:34:29;100090.53;;;40.17;21.69
70728;BME280;58314;47.722;17.652;2022-07-29T13:37:30;100082.25;;;40.68;19.60
70728;BME280;58314;47.722;17.652;2022-07-29T13:40:33;100090.56;;;41.74;19.53
70728;BME280;58314;47.722;17.652;2022-07-29T13:43:35;100081.44;;;40.42;20.84
70728;BME280;58314;47.722;17.652;2022-07-29T13:46:36;100076.41;;;40.85;19.65
70728;BME280;58314;47.722;17.652;2022-07-29T13:49:36;100079.56;;;41.49;19.64
70728;BME280;58314;47.722;17.652;2022-07-29T13:52:37;100073.63;;;41.66;18.13
70728;BME280;58314;47.722;17.652;2022-07-29T13:55:38;100071.44;;;41.57;18.62
70728;BME280;58314;47.722;17.652;2022-07-29T13:58:39;100077.53;;;41.70;18.77
70728;BME280;58314;47.722;17.652;2022-07-29T14:01:40;100079.13;;;41.81;17.89
70728;BME280;58314;47.722;17.652;2022-07-29T14:04:43;100065.75;;;41.18;18.93
70728;BME280;58314;47.722;17.652;2022-07-29T14:07:44;100066.50;;;41.49;18.30
70728;BME280;58314;47.722;17.652;2022-07-29T14:10:45;100063.56;;;41.80;18.95
70728;BME280;58314;47.722;17.652;2022-07-29T14:13:45;100053.34;;;41.75;19.10
70728;BME280;58314;47.722;17.652;2022-07-29T14:16:46;100054.47;;;41.69;18.86
70728;BME280;58314;47.722;17.652;2022-07-29T14:19:47;100058.69;;;40.60;18.77
70728;BME280;58314;47.722;17.652;2022-07-29T14:22:48;100063.03;;;39.84;20.44
70728;BME280;58314;47.722;17.652;2022-07-29T14:25:48;100050.59;;;38.38;21.59
70728;BME280;58314;47.722;17.652;2022-07-29T14:28:49;100055.13;;;37.19;22.94
70728;BME280;58314;47.722;17.652;2022-07-29T14:31:50;100060.69;;;36.34;23.91
70728;BME280;58314;47.722;17.652;2022-07-29T14:34:51;100059.38;;;35.91;25.14
70728;BME280;58314;47.722;17.652;2022-07-29T14:37:51;100058.50;;;35.61;25.51
70728;BME280;58314;47.722;17.652;2022-07-29T14:40:52;100063.94;;;35.44;26.23
70728;BME280;58314;47.722;17.652;2022-07-29T14:43:53;100064.81;;;34.98;27.11
70728;BME280;58314;47.722;17.652;2022-07-29T14:46:53;100065.81;;;34.92;27.01
70728;BME280;58314;47.722;17.652;2022-07-29T14:49:54;100058.25;;;34.87;27.38
70728;BME280;58314;47.722;17.652;2022-07-29T14:52:55;100061.47;;;34.48;27.60
70728;BME280;58314;47.722;17.652;2022-07-29T14:55:55;100063.50;;;34.53;27.77
70728;BME280;58314;47.722;17.652;2022-07-29T14:58:57;100055.22;;;34.29;28.68
70728;BME280;58314;47.722;17.652;2022-07-29T15:01:57;100055.97;;;34.48;29.80
70728;BME280;58314;47.722;17.652;2022-07-29T15:04:58;100049.50;;;34.31;28.34
70728;BME280;58314;47.722;17.652;2022-07-29T15:07:59;100047.97;;;34.82;28.64
70728;BME280;58314;47.722;17.652;2022-07-29T15:10:59;100034.91;;;34.42;29.50
70728;BME280;58314;47.722;17.652;2022-07-29T15:14:01;100037.84;;;34.71;28.18
70728;BME280;58314;47.722;17.652;2022-07-29T15:17:01;100035.88;;;34.60;28.85
70728;BME280;58314;47.722;17.652;2022-07-29T15:20:03;100026.00;;;34.05;29.54
70728;BME280;58314;47.722;17.652;2022-07-29T15:23:04;100026.34;;;33.66;29.17
70728;BME280;58314;47.722;17.652;2022-07-29T15:26:05;100025.41;;;33.72;28.69
70728;BME280;58314;47.722;17.652;2022-07-29T15:29:05;100028.31;;;33.59;30.10
70728;BME280;58314;47.722;17.652;2022-07-29T15:32:06;100019.03;;;33.42;29.20
70728;BME280;58314;47.722;17.652;2022-07-29T15:35:07;100018.16;;;33.11;29.43
70728;BME280;58314;47.722;17.652;2022-07-29T15:38:08;100016.28;;;33.30;29.95
70728;BME280;58314;47.722;17.652;2022-07-29T15:41:08;100016.00;;;33.13;31.09
70728;BME280;58314;47.722;17.652;2022-07-29T15:44:09;100008.53;;;33.01;30.31
70728;BME280;58314;47.722;17.652;2022-07-29T15:47:10;100015.97;;;32.76;33.11
70728;BME280;58314;47.722;17.652;2022-07-29T15:50:10;100019.41;;;32.71;31.11
70728;BME280;58314;47.722;17.652;2022-07-29T15:53:15;100016.38;;;32.79;31.29
70728;BME280;58314;47.722;17.652;2022-07-29T15:56:16;100026.91;;;32.57;32.38
70728;BME280;58314;47.722;17.652;2022-07-29T15:59:17;100021.06;;;32.22;32.40
70728;BME280;58314;47.722;17.652;2022-07-29T16:02:17;100020.69;;;32.18;32.52
70728;BME280;58314;47.722;17.652;2022-07-29T16:05:18;100013.69;;;31.90;32.64
70728;BME280;58314;47.722;17.652;2022-07-29T16:08:19;100013.97;;;31.82;33.06
70728;BME280;58314;47.722;17.652;2022-07-29T16:11:20;100013.44;;;31.15;36.71
70728;BME280;58314;47.722;17.652;2022-07-29T16:14:20;100012.94;;;31.25;36.51
70728;BME280;58314;47.722;17.652;2022-07-29T16:17:21;100016.75;;;31.30;35.05
70728;BME280;58314;47.722;17.652;2022-07-29T16:20:22;100023.84;;;31.38;35.93
70728;BME280;58314;47.722;17.652;2022-07-29T16:23:22;100018.00;;;31.21;35.94
70728;BME280;58314;47.722;17.652;2022-07-29T16:26:24;100043.13;;;31.63;37.35